createdAt,value
2024-04-16T00:02:53.189Z,2.87
2024-04-16T00:08:01.092Z,4.53
2024-04-16T00:13:06.690Z,3.43
2024-04-16T00:18:11.933Z,5.13
2024-04-16T00:23:19.399Z,2.60
2024-04-16T00:28:24.620Z,5.77
2024-04-16T00:33:30.100Z,4.33
2024-04-16T00:38:37.636Z,5.13
2024-04-16T00:43:42.896Z,4.77
2024-04-16T00:48:48.247Z,5.13
2024-04-16T00:53:55.720Z,2.67
2024-04-16T00:59:00.883Z,2.00
2024-04-16T01:04:05.923Z,1.50
2024-04-16T01:09:17.401Z,2.50
2024-04-16T01:14:22.471Z,2.73
2024-04-16T01:19:27.675Z,1.67
2024-04-16T01:24:35.524Z,2.13
2024-04-16T01:29:40.780Z,2.27
2024-04-16T01:34:45.836Z,1.77
2024-04-16T01:39:53.367Z,2.00
2024-04-16T01:45:00.942Z,3.00
2024-04-16T01:50:06.564Z,1.70
2024-04-16T01:55:14.292Z,3.33
2024-04-16T02:00:19.651Z,3.00
2024-04-16T02:05:24.506Z,4.17
2024-04-16T02:10:32.256Z,2.83
2024-04-16T02:15:37.203Z,3.17
2024-04-16T02:20:42.622Z,2.77
2024-04-16T02:25:53.461Z,2.90
2024-04-16T02:30:58.423Z,1.80
2024-04-16T02:36:04.450Z,3.13
2024-04-16T02:41:12.117Z,4.00
2024-04-16T02:46:17.029Z,4.70
2024-04-16T02:51:22.360Z,3.90
2024-04-16T02:56:29.853Z,4.83
2024-04-16T03:01:35.655Z,1.97
2024-04-16T03:06:40.780Z,3.73
2024-04-16T03:11:49.428Z,3.40
2024-04-16T03:16:54.513Z,3.23
2024-04-16T03:21:59.614Z,2.37
2024-04-16T03:27:07.926Z,1.90
2024-04-16T03:32:13.150Z,3.20
2024-04-16T03:37:18.188Z,3.17
2024-04-16T03:42:26.177Z,2.37
2024-04-16T03:47:32.691Z,3.20
2024-04-16T03:52:37.851Z,4.67
2024-04-16T03:57:45.526Z,2.67
2024-04-16T04:02:50.447Z,3.53
2024-04-16T04:07:55.704Z,2.60
2024-04-16T04:13:03.425Z,2.27
2024-04-16T04:18:09.133Z,3.23
2024-04-16T04:23:14.279Z,4.80
2024-04-16T04:28:21.749Z,2.17
2024-04-16T04:33:28.641Z,2.43
2024-04-16T04:38:33.586Z,2.70
2024-04-16T04:43:41.101Z,2.97
2024-04-16T04:48:46.454Z,4.00
2024-04-16T04:53:55.196Z,5.07
2024-04-16T04:59:03.011Z,3.70
2024-04-16T05:04:07.981Z,3.10
2024-04-16T05:09:13.083Z,2.10
2024-04-16T05:14:20.883Z,4.00
2024-04-16T05:19:25.969Z,6.17
2024-04-16T05:24:30.884Z,3.93
2024-04-16T05:29:38.349Z,4.93
2024-04-16T05:34:43.373Z,3.93
2024-04-16T05:39:48.391Z,2.93
2024-04-16T05:44:55.861Z,4.20
2024-04-16T05:50:02.257Z,4.83
2024-04-16T05:55:09.583Z,3.70
2024-04-16T06:00:17.608Z,4.73
2024-04-16T06:05:22.649Z,5.30
2024-04-16T06:10:27.588Z,4.43
2024-04-16T06:15:35.428Z,2.63
2024-04-16T06:20:40.330Z,3.23
2024-04-16T06:25:45.310Z,4.60
2024-04-16T06:30:52.783Z,3.50
2024-04-16T06:35:57.742Z,4.13
2024-04-16T06:41:03.568Z,4.43
2024-04-16T06:46:11.147Z,4.57
2024-04-16T06:51:16.121Z,4.40
2024-04-16T06:56:21.046Z,4.27
2024-04-16T07:01:28.728Z,4.10
2024-04-16T07:06:33.655Z,4.33
2024-04-16T07:11:38.557Z,6.13
2024-04-16T07:16:46.385Z,5.17
2024-04-16T07:21:51.524Z,5.13
2024-04-16T07:26:56.677Z,4.83
2024-04-16T07:32:04.228Z,4.37
2024-04-16T07:37:09.827Z,4.43
2024-04-16T07:42:14.969Z,4.80
2024-04-16T07:47:22.832Z,3.70
2024-04-16T07:52:28.134Z,4.43
2024-04-16T07:57:33.354Z,4.40
2024-04-16T08:02:41.087Z,4.47
2024-04-16T08:07:46.980Z,5.20
2024-04-16T08:12:51.917Z,4.80
2024-04-16T08:17:59.435Z,5.53
2024-04-16T08:23:04.379Z,4.73
2024-04-16T08:28:09.633Z,6.13
2024-04-16T08:33:21.391Z,3.83
2024-04-16T08:38:28.166Z,4.03
2024-04-16T08:43:34.750Z,3.00
2024-04-16T08:48:43.465Z,4.87
2024-04-16T08:53:51.241Z,3.43
2024-04-16T08:58:56.472Z,4.20
2024-04-16T09:04:04.471Z,3.40
2024-04-16T09:09:11.017Z,3.67
2024-04-16T09:14:17.765Z,3.50
2024-04-16T09:19:28.787Z,2.93
2024-04-16T09:24:33.843Z,2.40
2024-04-16T09:29:39.018Z,1.87
2024-04-16T09:34:47.937Z,1.73
2024-04-16T09:39:56.797Z,2.53
2024-04-16T09:45:02.364Z,2.13
2024-04-16T09:50:21.506Z,2.20
2024-04-16T09:55:38.483Z,1.80
2024-04-16T10:00:44.165Z,1.53
2024-04-16T10:05:51.727Z,0.80
2024-04-16T10:11:08.396Z,1.87
2024-04-16T10:16:19.746Z,2.37
2024-04-16T10:21:30.883Z,1.07
2024-04-16T10:26:38.011Z,2.37
2024-04-16T10:31:46.241Z,0.70
2024-04-16T10:36:55.349Z,2.20
2024-04-16T10:42:02.434Z,1.17
2024-04-16T10:47:11.273Z,1.37
2024-04-16T10:52:19.006Z,0.60
2024-04-16T10:57:24.242Z,0.67
2024-04-16T11:02:29.357Z,1.80
2024-04-16T11:07:37.430Z,1.23
2024-04-16T11:12:42.840Z,0.67
2024-04-16T11:17:48.772Z,1.60
2024-04-16T11:22:56.985Z,1.30
2024-04-16T11:28:01.907Z,1.30
2024-04-16T11:33:16.279Z,1.67
2024-04-16T11:38:27.709Z,1.43
2024-04-16T11:43:33.002Z,1.90
2024-04-16T11:48:39.385Z,1.33
2024-04-16T11:53:46.842Z,2.33
2024-04-16T11:58:51.788Z,1.43
2024-04-16T12:03:56.816Z,0.97
2024-04-16T12:09:04.486Z,1.03
2024-04-16T12:14:11.830Z,0.53
2024-04-16T12:19:16.905Z,0.97
2024-04-16T12:24:24.444Z,1.27
2024-04-16T12:29:29.309Z,1.37
2024-04-16T12:34:34.291Z,0.87
2024-04-16T12:39:41.951Z,0.80
2024-04-16T12:44:46.840Z,2.57
2024-04-16T12:49:51.669Z,1.70
2024-04-16T12:54:59.203Z,3.00
2024-04-16T13:00:04.243Z,2.43
2024-04-16T13:05:09.336Z,1.30
2024-04-16T13:10:16.974Z,1.93
2024-04-16T13:15:21.914Z,3.23
2024-04-16T13:20:29.102Z,2.13
2024-04-16T13:25:36.618Z,1.67
2024-04-16T13:30:41.556Z,1.00
2024-04-16T13:35:46.625Z,1.77
2024-04-16T13:40:54.701Z,2.10
2024-04-16T13:45:59.820Z,3.13
2024-04-16T13:51:07.080Z,0.47
2024-04-16T13:56:15.364Z,2.23
2024-04-16T14:01:20.712Z,1.53
2024-04-16T14:06:26.177Z,2.33
2024-04-16T14:11:33.852Z,1.03
2024-04-16T14:16:38.960Z,2.23
2024-04-16T14:21:44.190Z,0.50
2024-04-16T14:26:51.625Z,0.97
2024-04-16T14:31:56.594Z,1.10
2024-04-16T14:37:03.037Z,2.50
2024-04-16T14:42:10.721Z,2.40
2024-04-16T14:47:15.880Z,0.73
2024-04-16T14:52:20.818Z,1.37
2024-04-16T14:57:28.612Z,1.73
2024-04-16T15:02:33.545Z,3.17
2024-04-16T15:07:38.546Z,2.43
2024-04-16T15:12:46.099Z,1.13
2024-04-16T15:17:51.294Z,1.10
2024-04-16T15:22:56.216Z,1.20
2024-04-16T15:28:03.911Z,1.30
2024-04-16T15:33:09.219Z,1.93
2024-04-16T15:38:14.113Z,2.70
2024-04-16T15:43:22.555Z,3.93
2024-04-16T15:48:27.852Z,1.87
2024-04-16T15:53:32.760Z,6.00
2024-04-16T15:58:40.296Z,2.53
2024-04-16T16:03:45.248Z,4.43
2024-04-16T16:08:50.270Z,4.40
2024-04-16T16:13:57.761Z,1.93
2024-04-16T16:19:02.993Z,3.47
2024-04-16T16:24:08.624Z,1.87
2024-04-16T16:29:16.101Z,1.33
2024-04-16T16:34:21.013Z,2.40
2024-04-16T16:39:26.054Z,1.27
2024-04-16T16:44:33.530Z,2.97
2024-04-16T16:49:38.539Z,1.30
2024-04-16T16:54:43.636Z,1.67
2024-04-16T16:59:51.081Z,1.13
2024-04-16T17:04:55.984Z,2.50
2024-04-16T17:10:00.897Z,1.20
2024-04-16T17:15:09.370Z,1.33
2024-04-16T17:20:14.336Z,1.53
2024-04-16T17:25:19.351Z,1.20
2024-04-16T17:30:27.486Z,1.30
2024-04-16T17:35:32.736Z,2.20
2024-04-16T17:40:37.622Z,2.50
2024-04-16T17:45:46.843Z,2.30
2024-04-16T17:51:01.203Z,4.63
2024-04-16T17:56:12.970Z,2.30
2024-04-16T18:01:20.611Z,2.73
2024-04-16T18:06:26.276Z,2.30
2024-04-16T18:11:32.135Z,2.57
2024-04-16T18:16:39.805Z,3.40
2024-04-16T18:21:44.754Z,2.73
2024-04-16T18:26:49.779Z,2.37
2024-04-16T18:31:57.337Z,3.43
2024-04-16T18:37:04.966Z,3.70
2024-04-16T18:42:11.274Z,3.47
2024-04-16T18:47:21.762Z,4.17
2024-04-16T18:52:28.378Z,2.87
2024-04-16T18:57:33.284Z,3.20
2024-04-16T19:02:42.073Z,3.17
2024-04-16T19:07:47.168Z,3.77
2024-04-16T19:12:52.172Z,5.57
2024-04-16T19:17:59.813Z,3.20
2024-04-16T19:23:04.778Z,3.27
2024-04-16T19:28:09.704Z,3.53
2024-04-16T19:33:17.364Z,3.53
2024-04-16T19:38:22.940Z,3.83
2024-04-16T19:43:28.375Z,4.37
2024-04-16T19:48:35.925Z,11.87
2024-04-16T19:53:41.252Z,5.83
2024-04-16T19:58:46.373Z,7.20
2024-04-16T20:03:54.039Z,6.40
2024-04-16T20:08:59.062Z,5.40
2024-04-16T20:14:04.077Z,4.60
2024-04-16T20:19:12.244Z,4.70
2024-04-16T20:24:17.382Z,4.70
2024-04-16T20:29:22.234Z,4.33
2024-04-16T20:34:36.664Z,5.03
2024-04-16T20:39:49.894Z,5.37
2024-04-16T20:44:54.786Z,5.23
2024-04-16T20:50:02.228Z,5.53
2024-04-16T20:55:07.660Z,6.43
2024-04-16T21:00:13.541Z,6.03
2024-04-16T21:05:21.050Z,7.03
2024-04-16T21:10:26.033Z,6.53
2024-04-16T21:15:30.935Z,6.60
2024-04-16T21:20:38.630Z,7.07
2024-04-16T21:25:45.567Z,7.47
2024-04-16T21:30:50.585Z,8.00
2024-04-16T21:35:58.064Z,7.90
2024-04-16T21:41:02.925Z,8.67
2024-04-16T21:46:08.399Z,9.07
2024-04-16T21:51:15.842Z,9.00
2024-04-16T21:56:21.072Z,8.77
2024-04-16T22:01:26.218Z,9.13
2024-04-16T22:06:34.457Z,9.60
2024-04-16T22:11:39.397Z,10.03
2024-04-16T22:16:44.500Z,11.40
2024-04-16T22:21:52.125Z,9.37
2024-04-16T22:26:57.035Z,10.27
2024-04-16T22:32:02.103Z,11.23
2024-04-16T22:37:09.748Z,11.43
2024-04-16T22:42:14.600Z,11.90
2024-04-16T22:47:19.683Z,11.90
2024-04-16T22:52:27.549Z,13.10
2024-04-16T22:57:32.731Z,12.73
2024-04-16T23:02:37.898Z,13.30
2024-04-16T23:07:45.694Z,13.03
2024-04-16T23:12:50.899Z,13.10
2024-04-16T23:17:56.069Z,13.40
2024-04-16T23:23:04.032Z,12.70
2024-04-16T23:28:09.103Z,12.90
2024-04-16T23:33:14.120Z,13.20
2024-04-16T23:38:22.188Z,13.20
2024-04-16T23:43:27.298Z,13.37
2024-04-16T23:48:32.578Z,13.07
2024-04-16T23:53:40.465Z,13.77
2024-04-16T23:58:45.403Z,13.43
